sensor_id;sensor_type;location;lat;lon;timestamp;pressure;altitude;pressure_sealevel;temperature;humidity
28354;BME280;15603;50.878;8.036;2023-04-10T00:01:30;143951.53;;;2.90;100.00
28354;BME280;15603;50.878;8.036;2023-04-10T00:04:02;143956.38;;;2.92;100.00
28354;BME280;15603;50.878;8.036;2023-04-10T00:06:29;143986.59;;;3.05;100.00
28354;BME280;15603;50.878;8.036;2023-04-10T00:08:58;143964.84;;;2.96;100.00
28354;BME280;15603;50.878;8.036;2023-04-10T00:11:26;143956.38;;;2.92;100.00
28354;BME280;15603;50.878;8.036;2023-04-10T00:13:53;143937.03;;;2.84;100.00
28354;BME280;15603;50.878;8.036;2023-04-10T00:16:20;143895.97;;;2.67;100.00
28354;BME280;15603;50.878;8.036;2023-04-10T00:18:47;143906.84;;;2.71;100.00
28354;BME280;15603;50.878;8.036;2023-04-10T00:21:15;143920.13;;;2.77;100.00
28354;BME280;15603;50.878;8.036;2023-04-10T00:23:43;143935.84;;;2.84;100.00
28354;BME280;15603;50.878;8.036;2023-04-10T00:26:10;143900.78;;;2.69;100.00
28354;BME280;15603;50.878;8.036;2023-04-10T00:28:37;143880.28;;;2.60;100.00
28354;BME280;15603;50.878;8.036;2023-04-10T00:31:04;143870.59;;;2.56;100.00
28354;BME280;15603;50.878;8.036;2023-04-10T00:33:31;143853.69;;;2.49;100.00
28354;BME280;15603;50.878;8.036;2023-04-10T00:35:58;143848.84;;;2.47;100.00
28354;BME280;15603;50.878;8.036;2023-04-10T00:38:26;143807.78;;;2.29;100.00
28354;BME280;15603;50.878;8.036;2023-04-10T00:40:53;143842.78;;;2.44;100.00
28354;BME280;15603;50.878;8.036;2023-04-10T00:43:20;143850.03;;;2.47;100.00
28354;BME280;15603;50.878;8.036;2023-04-10T00:45:47;143761.88;;;2.10;100.00
28354;BME280;15603;50.878;8.036;2023-04-10T00:48:16;143871.81;;;2.57;100.00
28354;BME280;15603;50.878;8.036;2023-04-10T00:50:45;143862.16;;;2.52;100.00
28354;BME280;15603;50.878;8.036;2023-04-10T00:53:12;143836.75;;;2.42;100.00
28354;BME280;15603;50.878;8.036;2023-04-10T00:55:39;143792.06;;;2.23;100.00
28354;BME280;15603;50.878;8.036;2023-04-10T00:58:06;143792.06;;;2.23;100.00
28354;BME280;15603;50.878;8.036;2023-04-10T01:00:34;143846.41;;;2.46;100.00
28354;BME280;15603;50.878;8.036;2023-04-10T01:03:01;143883.84;;;2.62;100.00
28354;BME280;15603;50.878;8.036;2023-04-10T01:05:34;143879.03;;;2.60;100.00
28354;BME280;15603;50.878;8.036;2023-04-10T01:08:16;143874.19;;;2.58;100.00
28354;BME280;15603;50.878;8.036;2023-04-10T01:13:47;143888.75;;;2.64;100.00
28354;BME280;15603;50.878;8.036;2023-04-10T01:16:30;143881.47;;;2.61;100.00
28354;BME280;15603;50.878;8.036;2023-04-10T01:22:07;143854.88;;;2.49;100.00
28354;BME280;15603;50.878;8.036;2023-04-10T01:30:15;143842.78;;;2.44;100.00
28354;BME280;15603;50.878;8.036;2023-04-10T01:32:43;143836.75;;;2.42;100.00
28354;BME280;15603;50.878;8.036;2023-04-10T01:35:13;143786.03;;;2.20;100.00
28354;BME280;15603;50.878;8.036;2023-04-10T01:37:42;143816.25;;;2.33;100.00
28354;BME280;15603;50.878;8.036;2023-04-10T01:40:14;143823.47;;;2.36;100.00
28354;BME280;15603;50.878;8.036;2023-04-10T01:42:46;143792.06;;;2.23;100.00
28354;BME280;15603;50.878;8.036;2023-04-10T01:45:19;143827.09;;;2.38;100.00
28354;BME280;15603;50.878;8.036;2023-04-10T01:47:49;143750.97;;;2.05;100.00
28354;BME280;15603;50.878;8.036;2023-04-10T01:50:19;143804.16;;;2.28;100.00
28354;BME280;15603;50.878;8.036;2023-04-10T01:52:49;143742.53;;;2.02;100.00
28354;BME280;15603;50.878;8.036;2023-04-10T01:55:20;143783.59;;;2.19;100.00
28354;BME280;15603;50.878;8.036;2023-04-10T01:57:54;143693.00;;;1.81;100.00
28354;BME280;15603;50.878;8.036;2023-04-10T02:00:23;143749.78;;;2.05;100.00
28354;BME280;15603;50.878;8.036;2023-04-10T02:02:50;143737.69;;;2.00;100.00
28354;BME280;15603;50.878;8.036;2023-04-10T02:05:18;143767.91;;;2.12;100.00
28354;BME280;15603;50.878;8.036;2023-04-10T02:07:56;143724.41;;;1.94;100.00
28354;BME280;15603;50.878;8.036;2023-04-10T02:10:40;143759.44;;;2.09;100.00
28354;BME280;15603;50.878;8.036;2023-04-10T02:13:10;143767.91;;;2.12;100.00
28354;BME280;15603;50.878;8.036;2023-04-10T02:15:42;143753.44;;;2.06;100.00
28354;BME280;15603;50.878;8.036;2023-04-10T02:18:14;143764.28;;;2.11;100.00
28354;BME280;15603;50.878;8.036;2023-04-10T02:20:43;143688.19;;;1.79;100.00
28354;BME280;15603;50.878;8.036;2023-04-10T02:23:14;143746.16;;;2.03;100.00
28354;BME280;15603;50.878;8.036;2023-04-10T02:25:42;143729.25;;;1.96;100.00
28354;BME280;15603;50.878;8.036;2023-04-10T02:28:09;143661.63;;;1.67;100.00
28354;BME280;15603;50.878;8.036;2023-04-10T02:30:36;143685.78;;;1.77;100.00
28354;BME280;15603;50.878;8.036;2023-04-10T02:33:05;143695.44;;;1.82;100.00
28354;BME280;15603;50.878;8.036;2023-04-10T02:35:32;143680.97;;;1.75;100.00
28354;BME280;15603;50.878;8.036;2023-04-10T02:38:02;143729.25;;;1.96;100.00
28354;BME280;15603;50.878;8.036;2023-04-10T02:40:30;143734.06;;;1.98;100.00
28354;BME280;15603;50.878;8.036;2023-04-10T02:43:12;143717.19;;;1.91;100.00
28354;BME280;15603;50.878;8.036;2023-04-10T02:45:39;143718.38;;;1.91;100.00
28354;BME280;15603;50.878;8.036;2023-04-10T02:48:09;143661.63;;;1.67;100.00
28354;BME280;15603;50.878;8.036;2023-04-10T02:50:37;143729.25;;;1.96;100.00
28354;BME280;15603;50.878;8.036;2023-04-10T02:53:04;143726.84;;;1.95;100.00
28354;BME280;15603;50.878;8.036;2023-04-10T02:55:31;143685.78;;;1.77;100.00
28354;BME280;15603;50.878;8.036;2023-04-10T02:57:58;143683.34;;;1.76;100.00
28354;BME280;15603;50.878;8.036;2023-04-10T03:00:25;143689.44;;;1.79;100.00
28354;BME280;15603;50.878;8.036;2023-04-10T03:03:05;143638.66;;;1.57;100.00
28354;BME280;15603;50.878;8.036;2023-04-10T03:05:41;143724.41;;;1.94;100.00
28354;BME280;15603;50.878;8.036;2023-04-10T03:08:08;143668.88;;;1.70;100.00
28354;BME280;15603;50.878;8.036;2023-04-10T03:10:35;143736.50;;;1.99;100.00
28354;BME280;15603;50.878;8.036;2023-04-10T03:13:02;143685.78;;;1.77;100.00
28354;BME280;15603;50.878;8.036;2023-04-10T03:15:29;143591.63;;;1.37;100.00
28354;BME280;15603;50.878;8.036;2023-04-10T03:17:57;143717.19;;;1.91;100.00
28354;BME280;15603;50.878;8.036;2023-04-10T03:20:25;143697.84;;;1.83;100.00
28354;BME280;15603;50.878;8.036;2023-04-10T03:22:52;143644.75;;;1.60;100.00
28354;BME280;15603;50.878;8.036;2023-04-10T03:25:19;143644.75;;;1.60;100.00
28354;BME280;15603;50.878;8.036;2023-04-10T03:27:46;143688.19;;;1.79;100.00
28354;BME280;15603;50.878;8.036;2023-04-10T03:30:13;143632.66;;;1.55;100.00
28354;BME280;15603;50.878;8.036;2023-04-10T03:32:42;143717.19;;;1.91;100.00
28354;BME280;15603;50.878;8.036;2023-04-10T03:35:09;143736.50;;;1.99;100.00
28354;BME280;15603;50.878;8.036;2023-04-10T03:37:36;143750.97;;;2.05;100.00
28354;BME280;15603;50.878;8.036;2023-04-10T03:40:06;143767.91;;;2.12;100.00
28354;BME280;15603;50.878;8.036;2023-04-10T03:42:34;143632.66;;;1.55;100.00
28354;BME280;15603;50.878;8.036;2023-04-10T03:45:02;143680.97;;;1.75;100.00
28354;BME280;15603;50.878;8.036;2023-04-10T03:47:30;143668.88;;;1.70;100.00
28354;BME280;15603;50.878;8.036;2023-04-10T03:49:59;143613.34;;;1.47;100.00
28354;BME280;15603;50.878;8.036;2023-04-10T03:52:32;143630.22;;;1.54;100.00
28354;BME280;15603;50.878;8.036;2023-04-10T03:54:59;143693.00;;;1.81;100.00
28354;BME280;15603;50.878;8.036;2023-04-10T03:57:27;143709.94;;;1.88;100.00
28354;BME280;15603;50.878;8.036;2023-04-10T04:00:01;143676.13;;;1.73;100.00
28354;BME280;15603;50.878;8.036;2023-04-10T04:02:46;143671.31;;;1.71;100.00
28354;BME280;15603;50.878;8.036;2023-04-10T04:05:22;143618.19;;;1.49;100.00
28354;BME280;15603;50.878;8.036;2023-04-10T04:08:11;143690.63;;;1.80;100.00
28354;BME280;15603;50.878;8.036;2023-04-10T04:10:57;143639.91;;;1.58;100.00
28354;BME280;15603;50.878;8.036;2023-04-10T04:13:51;143659.22;;;1.66;100.00
28354;BME280;15603;50.878;8.036;2023-04-10T04:16:48;143703.91;;;1.85;100.00
28354;BME280;15603;50.878;8.036;2023-04-10T04:19:28;143754.63;;;2.07;100.00
28354;BME280;15603;50.878;8.036;2023-04-10T04:22:24;143722.03;;;1.93;100.00
28354;BME280;15603;50.878;8.036;2023-04-10T04:25:26;143763.09;;;2.10;100.00
28354;BME280;15603;50.878;8.036;2023-04-10T04:28:03;143712.38;;;1.89;100.00
28354;BME280;15603;50.878;8.036;2023-04-10T04:30:31;143693.00;;;1.81;100.00
28354;BME280;15603;50.878;8.036;2023-04-10T04:33:18;143648.31;;;1.62;100.00
28354;BME280;15603;50.878;8.036;2023-04-10T04:36:00;143656.78;;;1.65;100.00
28354;BME280;15603;50.878;8.036;2023-04-10T04:38:57;143775.13;;;2.15;100.00
28354;BME280;15603;50.878;8.036;2023-04-10T04:41:53;143812.63;;;2.31;100.00
28354;BME280;15603;50.878;8.036;2023-04-10T04:44:39;143833.13;;;2.40;100.00
28354;BME280;15603;50.878;8.036;2023-04-10T04:47:23;143846.41;;;2.46;100.00
28354;BME280;15603;50.878;8.036;2023-04-10T04:50:08;143869.38;;;2.55;100.00
28354;BME280;15603;50.878;8.036;2023-04-10T04:53:01;143921.34;;;2.78;100.00
28354;BME280;15603;50.878;8.036;2023-04-10T04:55:51;143963.63;;;2.95;100.00
28354;BME280;15603;50.878;8.036;2023-04-10T04:58:36;143968.47;;;2.98;100.00
28354;BME280;15603;50.878;8.036;2023-04-10T05:01:24;143898.41;;;2.68;100.00
28354;BME280;15603;50.878;8.036;2023-04-10T05:04:05;144033.78;;;3.25;100.00
28354;BME280;15603;50.878;8.036;2023-04-10T05:06:51;144021.66;;;3.20;100.00
28354;BME280;15603;50.878;8.036;2023-04-10T05:09:33;144086.94;;;3.48;100.00
28354;BME280;15603;50.878;8.036;2023-04-10T05:12:07;143999.91;;;3.11;100.00
28354;BME280;15603;50.878;8.036;2023-04-10T05:14:53;144161.94;;;3.80;100.00
28354;BME280;15603;50.878;8.036;2023-04-10T05:17:30;144169.16;;;3.83;100.00
28354;BME280;15603;50.878;8.036;2023-04-10T05:20:23;144242.97;;;4.14;100.00
28354;BME280;15603;50.878;8.036;2023-04-10T05:23:09;144220.00;;;4.04;100.00
28354;BME280;15603;50.878;8.036;2023-04-10T05:26:15;144279.28;;;4.29;100.00
28354;BME280;15603;50.878;8.036;2023-04-10T05:28:50;144299.81;;;4.38;100.00
28354;BME280;15603;50.878;8.036;2023-04-10T05:31:37;144367.59;;;4.67;100.00
28354;BME280;15603;50.878;8.036;2023-04-10T05:34:12;144384.53;;;4.74;100.00
28354;BME280;15603;50.878;8.036;2023-04-10T05:37:06;144413.56;;;4.86;100.00
28354;BME280;15603;50.878;8.036;2023-04-10T05:39:58;144435.38;;;4.96;99.81
28354;BME280;15603;50.878;8.036;2023-04-10T05:42:25;144423.25;;;4.90;99.43
28354;BME280;15603;50.878;8.036;2023-04-10T05:45:12;144394.22;;;4.78;98.12
28354;BME280;15603;50.878;8.036;2023-04-10T05:47:59;144485.00;;;5.17;97.70
28354;BME280;15603;50.878;8.036;2023-04-10T05:50:34;144495.88;;;5.21;98.28
28354;BME280;15603;50.878;8.036;2023-04-10T05:53:27;144558.84;;;5.48;97.35
28354;BME280;15603;50.878;8.036;2023-04-10T05:56:22;144546.78;;;5.43;97.23
28354;BME280;15603;50.878;8.036;2023-04-10T05:59:08;144602.47;;;5.66;96.32
28354;BME280;15603;50.878;8.036;2023-04-10T06:01:56;144602.47;;;5.66;95.95
28354;BME280;15603;50.878;8.036;2023-04-10T06:04:23;144626.69;;;5.77;95.00
28354;BME280;15603;50.878;8.036;2023-04-10T06:06:54;144646.06;;;5.85;95.11
28354;BME280;15603;50.878;8.036;2023-04-10T06:09:21;144658.19;;;5.90;94.41
28354;BME280;15603;50.878;8.036;2023-04-10T06:11:48;144653.34;;;5.88;93.95
28354;BME280;15603;50.878;8.036;2023-04-10T06:14:19;144644.84;;;5.84;93.87
28354;BME280;15603;50.878;8.036;2023-04-10T06:16:46;144697.00;;;6.06;93.14
28354;BME280;15603;50.878;8.036;2023-04-10T06:19:14;144675.19;;;5.97;92.74
28354;BME280;15603;50.878;8.036;2023-04-10T06:21:41;144636.38;;;5.81;92.45
28354;BME280;15603;50.878;8.036;2023-04-10T06:24:08;144718.78;;;6.16;92.39
28354;BME280;15603;50.878;8.036;2023-04-10T06:26:38;144689.72;;;6.03;92.04
28354;BME280;15603;50.878;8.036;2023-04-10T06:29:06;144749.09;;;6.28;91.55
28354;BME280;15603;50.878;8.036;2023-04-10T06:31:33;144762.41;;;6.34;91.64
28354;BME280;15603;50.878;8.036;2023-04-10T06:34:01;144780.59;;;6.42;90.83
28354;BME280;15603;50.878;8.036;2023-04-10T06:36:28;144793.94;;;6.47;90.49
28354;BME280;15603;50.878;8.036;2023-04-10T06:39:00;144852.13;;;6.72;89.54
28354;BME280;15603;50.878;8.036;2023-04-10T06:41:28;144878.78;;;6.83;90.08
28354;BME280;15603;50.878;8.036;2023-04-10T06:44:05;144859.34;;;6.75;88.71
28354;BME280;15603;50.878;8.036;2023-04-10T06:46:32;144924.84;;;7.03;88.48
28354;BME280;15603;50.878;8.036;2023-04-10T06:48:59;144940.59;;;7.10;87.50
28354;BME280;15603;50.878;8.036;2023-04-10T06:51:26;144951.53;;;7.14;86.39
28354;BME280;15603;50.878;8.036;2023-04-10T06:53:53;145009.69;;;7.39;86.62
28354;BME280;15603;50.878;8.036;2023-04-10T06:56:20;144991.50;;;7.31;86.40
28354;BME280;15603;50.878;8.036;2023-04-10T06:58:47;145071.56;;;7.65;84.46
28354;BME280;15603;50.878;8.036;2023-04-10T07:01:14;145078.88;;;7.68;83.90
28354;BME280;15603;50.878;8.036;2023-04-10T07:03:43;145090.97;;;7.73;83.46
28354;BME280;15603;50.878;8.036;2023-04-10T07:06:10;145123.69;;;7.87;82.92
28354;BME280;15603;50.878;8.036;2023-04-10T07:08:38;145133.44;;;7.91;82.61
28354;BME280;15603;50.878;8.036;2023-04-10T07:11:05;145133.44;;;7.91;82.63
28354;BME280;15603;50.878;8.036;2023-04-10T07:13:32;145148.00;;;7.97;81.64
28354;BME280;15603;50.878;8.036;2023-04-10T07:16:01;145215.94;;;8.26;80.13
28354;BME280;15603;50.878;8.036;2023-04-10T07:18:28;145220.78;;;8.28;80.83
28354;BME280;15603;50.878;8.036;2023-04-10T07:20:55;145213.50;;;8.25;81.07
28354;BME280;15603;50.878;8.036;2023-04-10T07:23:22;145279.09;;;8.53;78.54
28354;BME280;15603;50.878;8.036;2023-04-10T07:25:49;145229.28;;;8.32;78.83
28354;BME280;15603;50.878;8.036;2023-04-10T07:28:17;145287.56;;;8.56;78.29
28354;BME280;15603;50.878;8.036;2023-04-10T07:30:44;145331.28;;;8.75;78.01
28354;BME280;15603;50.878;8.036;2023-04-10T07:33:12;145381.06;;;8.96;76.76
28354;BME280;15603;50.878;8.036;2023-04-10T07:35:39;145422.31;;;9.13;75.85
28354;BME280;15603;50.878;8.036;2023-04-10T07:38:06;145441.75;;;9.21;75.83
28354;BME280;15603;50.878;8.036;2023-04-10T07:40:33;145453.91;;;9.27;76.08
28354;BME280;15603;50.878;8.036;2023-04-10T07:43:00;145436.88;;;9.19;74.78
28354;BME280;15603;50.878;8.036;2023-04-10T07:45:27;145429.63;;;9.16;75.02
28354;BME280;15603;50.878;8.036;2023-04-10T07:47:54;145419.94;;;9.12;74.30
28354;BME280;15603;50.878;8.036;2023-04-10T07:50:21;145548.66;;;9.67;73.15
28354;BME280;15603;50.878;8.036;2023-04-10T07:52:49;145564.41;;;9.73;72.91
28354;BME280;15603;50.878;8.036;2023-04-10T07:55:16;145581.44;;;9.80;71.65
28354;BME280;15603;50.878;8.036;2023-04-10T07:57:43;145562.00;;;9.72;71.59
28354;BME280;15603;50.878;8.036;2023-04-10T08:00:10;145621.53;;;9.97;70.89
28354;BME280;15603;50.878;8.036;2023-04-10T08:02:41;145614.22;;;9.94;70.17
28354;BME280;15603;50.878;8.036;2023-04-10T08:05:09;145691.97;;;10.27;69.70
28354;BME280;15603;50.878;8.036;2023-04-10T08:07:36;145739.44;;;10.47;68.46
28354;BME280;15603;50.878;8.036;2023-04-10T08:10:04;145733.34;;;10.45;67.55
28354;BME280;15603;50.878;8.036;2023-04-10T08:12:32;145829.38;;;10.85;67.15
28354;BME280;15603;50.878;8.036;2023-04-10T08:15:00;145896.25;;;11.13;65.58
28354;BME280;15603;50.878;8.036;2023-04-10T08:17:27;145940.03;;;11.32;66.47
28354;BME280;15603;50.878;8.036;2023-04-10T08:19:55;145949.78;;;11.36;64.04
28354;BME280;15603;50.878;8.036;2023-04-10T08:22:22;145924.22;;;11.25;65.33
28354;BME280;15603;50.878;8.036;2023-04-10T08:24:49;145982.59;;;11.50;65.55
28354;BME280;15603;50.878;8.036;2023-04-10T08:27:16;145966.75;;;11.43;62.60
28354;BME280;15603;50.878;8.036;2023-04-10T08:29:43;146071.38;;;11.87;62.55
28354;BME280;15603;50.878;8.036;2023-04-10T08:32:10;146103.06;;;12.01;65.66
28354;BME280;15603;50.878;8.036;2023-04-10T08:34:37;146159.06;;;12.24;60.23
28354;BME280;15603;50.878;8.036;2023-04-10T08:37:05;146151.72;;;12.21;59.89
28354;BME280;15603;50.878;8.036;2023-04-10T08:39:35;146251.53;;;12.63;59.80
28354;BME280;15603;50.878;8.036;2023-04-10T08:42:03;146255.19;;;12.65;61.94
28354;BME280;15603;50.878;8.036;2023-04-10T08:44:31;146351.34;;;13.05;57.73
28354;BME280;15603;50.878;8.036;2023-04-10T08:46:59;146339.16;;;13.00;58.43
28354;BME280;15603;50.878;8.036;2023-04-10T08:49:55;146373.28;;;13.14;58.10
28354;BME280;15603;50.878;8.036;2023-04-10T08:52:28;146336.75;;;12.99;56.04
28354;BME280;15603;50.878;8.036;2023-04-10T08:54:58;146385.44;;;13.20;57.71
28354;BME280;15603;50.878;8.036;2023-04-10T08:57:27;146387.88;;;13.21;56.23
28354;BME280;15603;50.878;8.036;2023-04-10T08:59:57;146322.13;;;12.93;55.85
28354;BME280;15603;50.878;8.036;2023-04-10T09:02:24;146348.91;;;13.04;55.99
28354;BME280;15603;50.878;8.036;2023-04-10T09:04:52;146336.75;;;12.99;55.94
28354;BME280;15603;50.878;8.036;2023-04-10T09:07:22;146393.97;;;13.23;55.88
28354;BME280;15603;50.878;8.036;2023-04-10T09:09:49;146311.19;;;12.88;54.84
28354;BME280;15603;50.878;8.036;2023-04-10T09:12:16;146307.50;;;12.87;55.15
28354;BME280;15603;50.878;8.036;2023-04-10T09:14:43;146387.88;;;13.21;56.69
28354;BME280;15603;50.878;8.036;2023-04-10T09:17:20;146395.16;;;13.24;55.42
28354;BME280;15603;50.878;8.036;2023-04-10T09:19:50;146345.25;;;13.03;55.88
28354;BME280;15603;50.878;8.036;2023-04-10T09:22:33;146324.56;;;12.94;55.41
28354;BME280;15603;50.878;8.036;2023-04-10T09:25:02;146298.97;;;12.83;54.99
28354;BME280;15603;50.878;8.036;2023-04-10T09:27:34;146340.38;;;13.01;55.31
28354;BME280;15603;50.878;8.036;2023-04-10T09:30:02;146376.91;;;13.16;54.75
28354;BME280;15603;50.878;8.036;2023-04-10T09:32:43;146390.31;;;13.22;54.66
28354;BME280;15603;50.878;8.036;2023-04-10T09:35:12;146418.34;;;13.33;56.52
28354;BME280;15603;50.878;8.036;2023-04-10T09:37:42;146365.97;;;13.11;55.08
28354;BME280;15603;50.878;8.036;2023-04-10T09:42:46;146361.09;;;13.09;55.67
28354;BME280;15603;50.878;8.036;2023-04-10T09:45:13;146480.47;;;13.60;55.12
28354;BME280;15603;50.878;8.036;2023-04-10T09:48:02;146549.91;;;13.89;53.76
28354;BME280;15603;50.878;8.036;2023-04-10T09:50:37;146590.09;;;14.06;54.29
28354;BME280;15603;50.878;8.036;2023-04-10T09:53:12;146652.28;;;14.32;54.65
28354;BME280;15603;50.878;8.036;2023-04-10T09:55:40;146626.66;;;14.21;53.29
28354;BME280;15603;50.878;8.036;2023-04-10T09:58:08;146659.56;;;14.35;52.73
28354;BME280;15603;50.878;8.036;2023-04-10T10:00:39;146681.50;;;14.44;52.71
28354;BME280;15603;50.878;8.036;2023-04-10T10:03:09;146607.19;;;14.13;52.20
28354;BME280;15603;50.878;8.036;2023-04-10T10:05:42;146733.94;;;14.66;52.30
28354;BME280;15603;50.878;8.036;2023-04-10T10:08:11;146774.16;;;14.83;52.71
28354;BME280;15603;50.878;8.036;2023-04-10T10:10:52;146777.81;;;14.85;51.32
28354;BME280;15603;50.878;8.036;2023-04-10T10:16:12;146796.09;;;14.92;51.22
28354;BME280;15603;50.878;8.036;2023-04-10T10:18:53;146797.31;;;14.93;50.32
28354;BME280;15603;50.878;8.036;2023-04-10T10:21:22;146730.31;;;14.65;49.13
28354;BME280;15603;50.878;8.036;2023-04-10T10:23:50;146744.91;;;14.71;49.07
28354;BME280;15603;50.878;8.036;2023-04-10T10:26:19;146757.13;;;14.76;49.93
28354;BME280;15603;50.878;8.036;2023-04-10T10:28:52;146707.09;;;14.55;48.73
28354;BME280;15603;50.878;8.036;2023-04-10T10:31:20;146803.44;;;14.96;49.09
28354;BME280;15603;50.878;8.036;2023-04-10T10:33:51;146876.59;;;15.26;49.83
28354;BME280;15603;50.878;8.036;2023-04-10T10:36:19;146892.41;;;15.33;49.63
28354;BME280;15603;50.878;8.036;2023-04-10T10:39:05;146858.31;;;15.19;48.06
28354;BME280;15603;50.878;8.036;2023-04-10T10:42:12;146943.63;;;15.55;48.70
28354;BME280;15603;50.878;8.036;2023-04-10T10:44:47;146880.22;;;15.28;48.52
28354;BME280;15603;50.878;8.036;2023-04-10T10:47:18;146890.00;;;15.32;47.94
28354;BME280;15603;50.878;8.036;2023-04-10T10:49:54;146796.09;;;14.92;50.71
28354;BME280;15603;50.878;8.036;2023-04-10T10:52:46;147026.59;;;15.89;47.85
28354;BME280;15603;50.878;8.036;2023-04-10T10:57:49;147063.19;;;16.05;47.71
28354;BME280;15603;50.878;8.036;2023-04-10T11:00:19;147105.94;;;16.23;47.55
28354;BME280;15603;50.878;8.036;2023-04-10T11:05:53;146931.47;;;15.49;45.24
28354;BME280;15603;50.878;8.036;2023-04-10T11:08:38;146994.94;;;15.76;44.37
28354;BME280;15603;50.878;8.036;2023-04-10T11:11:22;146969.25;;;15.65;45.25
28354;BME280;15603;50.878;8.036;2023-04-10T11:16:40;147153.50;;;16.43;41.86
28354;BME280;15603;50.878;8.036;2023-04-10T11:19:10;147062.00;;;16.04;43.55
28354;BME280;15603;50.878;8.036;2023-04-10T11:24:25;147042.47;;;15.96;43.24
28354;BME280;15603;50.878;8.036;2023-04-10T11:26:52;147085.16;;;16.14;43.13
28354;BME280;15603;50.878;8.036;2023-04-10T11:31:56;147147.41;;;16.40;41.51
28354;BME280;15603;50.878;8.036;2023-04-10T11:34:24;147153.50;;;16.43;42.45
28354;BME280;15603;50.878;8.036;2023-04-10T11:36:53;147171.78;;;16.51;41.44
28354;BME280;15603;50.878;8.036;2023-04-10T11:39:26;147163.25;;;16.47;41.80
28354;BME280;15603;50.878;8.036;2023-04-10T11:41:53;147070.53;;;16.08;42.26
28354;BME280;15603;50.878;8.036;2023-04-10T11:44:31;147099.78;;;16.20;42.69
28354;BME280;15603;50.878;8.036;2023-04-10T11:46:58;147025.41;;;15.89;41.92
28354;BME280;15603;50.878;8.036;2023-04-10T11:49:29;147097.38;;;16.19;42.20
28354;BME280;15603;50.878;8.036;2023-04-10T11:51:56;147226.72;;;16.74;42.02
28354;BME280;15603;50.878;8.036;2023-04-10T11:54:25;147221.84;;;16.72;41.78
28354;BME280;15603;50.878;8.036;2023-04-10T11:57:06;147199.84;;;16.62;41.25
28354;BME280;15603;50.878;8.036;2023-04-10T11:59:35;147212.06;;;16.67;41.88
28354;BME280;15603;50.878;8.036;2023-04-10T12:02:10;147226.72;;;16.74;40.39
28354;BME280;15603;50.878;8.036;2023-04-10T12:04:37;147202.31;;;16.63;40.34
28354;BME280;15603;50.878;8.036;2023-04-10T12:07:06;147107.13;;;16.23;42.71
28354;BME280;15603;50.878;8.036;2023-04-10T12:09:33;147107.13;;;16.23;42.15
28354;BME280;15603;50.878;8.036;2023-04-10T12:12:03;147101.06;;;16.21;41.88
28354;BME280;15603;50.878;8.036;2023-04-10T12:17:03;147148.63;;;16.41;41.50
28354;BME280;15603;50.878;8.036;2023-04-10T12:19:31;147136.41;;;16.36;41.32
28354;BME280;15603;50.878;8.036;2023-04-10T12:21:59;147129.09;;;16.33;42.99
28354;BME280;15603;50.878;8.036;2023-04-10T12:24:46;147257.28;;;16.86;42.88
28354;BME280;15603;50.878;8.036;2023-04-10T12:27:26;147260.97;;;16.88;41.75
28354;BME280;15603;50.878;8.036;2023-04-10T12:29:56;147311.00;;;17.09;41.78
28354;BME280;15603;50.878;8.036;2023-04-10T12:32:24;147369.56;;;17.34;41.73
28354;BME280;15603;50.878;8.036;2023-04-10T12:34:53;147419.63;;;17.55;40.77
28354;BME280;15603;50.878;8.036;2023-04-10T12:37:24;147372.03;;;17.35;39.68
28354;BME280;15603;50.878;8.036;2023-04-10T12:39:51;147214.50;;;16.68;39.05
28354;BME280;15603;50.878;8.036;2023-04-10T12:42:21;147162.03;;;16.46;38.36
28354;BME280;15603;50.878;8.036;2023-04-10T12:44:57;147312.22;;;17.10;38.83
28354;BME280;15603;50.878;8.036;2023-04-10T12:47:27;147253.63;;;16.85;37.10
28354;BME280;15603;50.878;8.036;2023-04-10T12:50:07;147287.78;;;16.99;37.77
28354;BME280;15603;50.878;8.036;2023-04-10T12:52:44;147245.03;;;16.81;37.32
28354;BME280;15603;50.878;8.036;2023-04-10T12:55:16;147286.56;;;16.99;36.48
28354;BME280;15603;50.878;8.036;2023-04-10T12:57:45;147346.38;;;17.24;38.62
28354;BME280;15603;50.878;8.036;2023-04-10T13:00:14;147307.34;;;17.07;39.24
28354;BME280;15603;50.878;8.036;2023-04-10T13:02:42;147334.19;;;17.19;39.41
28354;BME280;15603;50.878;8.036;2023-04-10T13:05:10;147365.94;;;17.32;38.14
28354;BME280;15603;50.878;8.036;2023-04-10T13:07:38;147444.09;;;17.65;37.19
28354;BME280;15603;50.878;8.036;2023-04-10T13:10:06;147522.28;;;17.98;38.57
28354;BME280;15603;50.878;8.036;2023-04-10T13:12:34;147346.38;;;17.24;36.27
28354;BME280;15603;50.878;8.036;2023-04-10T13:15:02;147365.94;;;17.32;35.40
28354;BME280;15603;50.878;8.036;2023-04-10T13:17:29;147300.00;;;17.04;34.63
28354;BME280;15603;50.878;8.036;2023-04-10T13:19:56;147314.63;;;17.11;34.95
28354;BME280;15603;50.878;8.036;2023-04-10T13:22:23;147343.97;;;17.23;34.57
28354;BME280;15603;50.878;8.036;2023-04-10T13:24:50;147289.03;;;17.00;34.11
28354;BME280;15603;50.878;8.036;2023-04-10T13:27:17;147345.16;;;17.23;33.59
28354;BME280;15603;50.878;8.036;2023-04-10T13:29:44;147259.72;;;16.87;34.57
28354;BME280;15603;50.878;8.036;2023-04-10T13:32:11;147295.13;;;17.02;34.17
28354;BME280;15603;50.878;8.036;2023-04-10T13:34:39;147303.66;;;17.06;34.51
28354;BME280;15603;50.878;8.036;2023-04-10T13:37:06;147304.88;;;17.06;34.75
28354;BME280;15603;50.878;8.036;2023-04-10T13:39:33;147326.84;;;17.16;34.65
28354;BME280;15603;50.878;8.036;2023-04-10T13:42:01;147262.16;;;16.88;35.01
28354;BME280;15603;50.878;8.036;2023-04-10T13:44:28;147287.78;;;16.99;34.37
28354;BME280;15603;50.878;8.036;2023-04-10T13:46:55;147304.88;;;17.06;34.20
28354;BME280;15603;50.878;8.036;2023-04-10T13:49:24;147354.94;;;17.27;34.07
28354;BME280;15603;50.878;8.036;2023-04-10T13:51:51;147300.00;;;17.04;33.57